createdAt,value
2017-11-14T00:00:45.984Z,13.60
2017-11-14T00:03:14.211Z,13.70
2017-11-14T00:05:41.658Z,13.70
2017-11-14T00:08:09.894Z,13.60
2017-11-14T00:10:38.138Z,13.60
2017-11-14T00:13:05.606Z,13.60
2017-11-14T00:15:33.213Z,13.60
2017-11-14T00:18:00.666Z,13.60
2017-11-14T00:20:28.125Z,13.60
2017-11-14T00:22:55.580Z,13.50
2017-11-14T00:25:23.067Z,13.50
2017-11-14T00:27:50.523Z,13.60
2017-11-14T00:30:18.436Z,13.50
2017-11-14T00:32:46.658Z,13.50
2017-11-14T00:35:14.119Z,13.50
2017-11-14T00:37:41.570Z,13.50
2017-11-14T00:40:09.056Z,13.50
2017-11-14T00:42:36.511Z,13.40
2017-11-14T00:45:03.963Z,13.40
2017-11-14T00:47:31.422Z,13.40
2017-11-14T00:49:58.873Z,13.40
2017-11-14T00:52:26.325Z,13.30
2017-11-14T00:54:53.787Z,13.30
2017-11-14T00:57:21.239Z,13.30
2017-11-14T00:59:48.703Z,13.30
2017-11-14T01:02:16.180Z,13.30
2017-11-14T01:04:43.639Z,13.30
2017-11-14T01:07:11.092Z,13.30
2017-11-14T01:09:38.548Z,13.30
2017-11-14T01:12:06.016Z,13.30
2017-11-14T01:14:33.462Z,13.30
2017-11-14T01:17:01.707Z,13.30
2017-11-14T01:19:29.139Z,13.30
2017-11-14T01:21:56.604Z,13.30
2017-11-14T01:24:24.054Z,13.30
2017-11-14T01:26:51.516Z,13.20
2017-11-14T01:29:18.983Z,13.20
2017-11-14T01:31:46.451Z,13.20
2017-11-14T01:34:14.677Z,13.20
2017-11-14T01:36:42.894Z,13.20
2017-11-14T01:39:10.355Z,13.20
2017-11-14T01:41:37.817Z,13.20
2017-11-14T01:44:06.043Z,13.20
2017-11-14T01:46:34.272Z,13.20
2017-11-14T01:49:01.717Z,13.10
2017-11-14T01:51:29.187Z,13.10
2017-11-14T01:53:56.642Z,13.10
2017-11-14T01:56:24.099Z,13.10
2017-11-14T01:58:52.342Z,13.10
2017-11-14T02:01:19.795Z,13.00
2017-11-14T02:03:47.234Z,13.00
2017-11-14T02:06:15.463Z,13.00
2017-11-14T02:08:42.919Z,13.00
2017-11-14T02:11:11.143Z,13.00
2017-11-14T02:13:38.635Z,13.00
2017-11-14T02:16:06.099Z,12.90
2017-11-14T02:18:33.555Z,12.90
2017-11-14T02:21:01.023Z,12.90
2017-11-14T02:23:28.483Z,12.90
2017-11-14T02:26:01.749Z,12.90
2017-11-14T02:28:29.208Z,12.90
2017-11-14T02:30:56.662Z,12.90
2017-11-14T02:33:24.122Z,12.90
2017-11-14T02:35:51.596Z,12.80
2017-11-14T02:38:19.058Z,12.80
2017-11-14T02:40:46.512Z,12.80
2017-11-14T02:43:13.966Z,12.80
2017-11-14T02:45:42.176Z,12.80
2017-11-14T02:48:09.632Z,12.80
2017-11-14T02:50:37.092Z,12.80
2017-11-14T02:53:04.546Z,12.70
2017-11-14T02:55:32.026Z,12.80
2017-11-14T02:58:00.260Z,12.80
2017-11-14T03:00:27.726Z,12.80
2017-11-14T03:02:55.976Z,12.80
2017-11-14T03:05:23.443Z,12.80
2017-11-14T03:07:50.910Z,12.70
2017-11-14T03:10:18.360Z,12.80
2017-11-14T03:12:46.607Z,12.80
2017-11-14T03:15:14.823Z,12.70
2017-11-14T03:17:42.272Z,12.70
2017-11-14T03:20:10.625Z,12.70
2017-11-14T03:22:38.834Z,12.70
2017-11-14T03:25:06.292Z,12.70
2017-11-14T03:27:33.748Z,12.70
2017-11-14T03:30:01.201Z,12.70
2017-11-14T03:32:28.658Z,12.70
2017-11-14T03:34:56.177Z,12.70
2017-11-14T03:37:23.630Z,12.70
2017-11-14T03:39:51.847Z,12.70
2017-11-14T03:42:20.063Z,12.70
2017-11-14T03:44:48.378Z,12.70
2017-11-14T03:47:15.847Z,12.70
2017-11-14T03:49:44.071Z,12.70
2017-11-14T03:52:12.302Z,12.70
2017-11-14T03:54:39.772Z,12.70
2017-11-14T03:57:07.276Z,12.70
2017-11-14T03:59:35.564Z,12.70
2017-11-14T04:02:03.019Z,12.70
2017-11-14T04:04:30.475Z,12.70
2017-11-14T04:06:57.929Z,12.60
2017-11-14T04:09:26.163Z,12.60
2017-11-14T04:11:53.644Z,12.60
2017-11-14T04:14:21.141Z,12.60
2017-11-14T04:16:48.613Z,12.50
2017-11-14T04:19:16.095Z,12.60
2017-11-14T04:21:43.543Z,12.50
2017-11-14T04:24:10.992Z,12.50
2017-11-14T04:26:38.463Z,12.50
2017-11-14T04:29:05.910Z,12.50
2017-11-14T04:31:33.366Z,12.60
2017-11-14T04:34:00.818Z,12.50
2017-11-14T04:36:28.275Z,12.50
2017-11-14T04:38:56.497Z,12.50
2017-11-14T04:41:24.736Z,12.50
2017-11-14T04:43:52.184Z,12.50
2017-11-14T04:46:19.640Z,12.50
2017-11-14T04:48:47.099Z,12.50
2017-11-14T04:51:14.601Z,12.50
2017-11-14T04:53:42.820Z,12.40
2017-11-14T04:56:10.279Z,12.40
2017-11-14T04:58:37.731Z,12.40
2017-11-14T05:01:05.945Z,12.40
2017-11-14T05:03:34.187Z,12.30
2017-11-14T05:06:01.634Z,12.40
2017-11-14T05:08:29.105Z,12.40
2017-11-14T05:10:56.569Z,12.40
2017-11-14T05:13:24.028Z,12.30
2017-11-14T05:15:51.503Z,12.40
2017-11-14T05:18:18.988Z,12.40
2017-11-14T05:20:47.208Z,12.40
2017-11-14T05:23:14.662Z,12.40
2017-11-14T05:25:42.123Z,12.40
2017-11-14T05:28:09.585Z,12.40
2017-11-14T05:30:37.053Z,12.40
2017-11-14T05:33:05.280Z,12.40
2017-11-14T05:35:33.497Z,12.40
2017-11-14T05:38:00.958Z,12.40
2017-11-14T05:40:29.192Z,12.40
2017-11-14T05:42:56.653Z,12.40
2017-11-14T05:45:24.854Z,12.40
2017-11-14T05:47:52.337Z,12.40
2017-11-14T05:50:19.778Z,12.40
2017-11-14T05:52:47.251Z,12.40
2017-11-14T05:55:14.727Z,12.40
2017-11-14T05:57:42.183Z,12.40
2017-11-14T06:00:09.648Z,12.40
2017-11-14T06:02:37.865Z,12.40
2017-11-14T06:05:06.099Z,12.40
2017-11-14T06:07:34.314Z,12.40
2017-11-14T06:10:01.779Z,12.30
2017-11-14T06:12:29.240Z,12.40
2017-11-14T06:14:56.699Z,12.40
2017-11-14T06:17:24.147Z,12.40
2017-11-14T06:19:51.608Z,12.40
2017-11-14T06:22:19.063Z,12.40
2017-11-14T06:24:46.516Z,12.40
2017-11-14T06:27:13.963Z,12.40
2017-11-14T06:29:42.204Z,12.40
2017-11-14T06:32:10.426Z,12.40
2017-11-14T06:34:37.886Z,12.40
2017-11-14T06:37:05.344Z,12.40
2017-11-14T06:39:32.802Z,12.40
2017-11-14T06:42:01.027Z,12.40
2017-11-14T06:44:29.247Z,12.40
2017-11-14T06:46:56.713Z,12.40
2017-11-14T06:49:24.163Z,12.40
2017-11-14T06:51:51.624Z,12.40
2017-11-14T06:54:19.087Z,12.40
2017-11-14T06:56:46.545Z,12.40
2017-11-14T06:59:14.001Z,12.50
2017-11-14T07:01:41.452Z,12.50
2017-11-14T07:04:08.913Z,12.50
2017-11-14T07:06:37.156Z,12.40
2017-11-14T07:09:04.602Z,12.40
2017-11-14T07:11:32.828Z,12.50
2017-11-14T07:14:00.274Z,12.40
2017-11-14T07:16:27.759Z,12.40
2017-11-14T07:18:55.203Z,12.50
2017-11-14T07:21:23.419Z,12.50
2017-11-14T07:23:51.637Z,12.50
2017-11-14T07:26:19.161Z,12.50
2017-11-14T07:28:47.441Z,12.50
2017-11-14T07:31:15.670Z,12.50
2017-11-14T07:33:43.167Z,12.50
2017-11-14T07:36:11.402Z,12.50
2017-11-14T07:38:39.622Z,12.50
2017-11-14T07:41:07.082Z,12.50
2017-11-14T07:43:35.363Z,12.60
2017-11-14T07:46:02.844Z,12.60
2017-11-14T07:48:30.335Z,12.60
2017-11-14T07:50:57.819Z,12.60
2017-11-14T07:53:25.293Z,12.70
2017-11-14T07:55:52.747Z,12.70
2017-11-14T07:58:21.050Z,12.70
2017-11-14T08:00:48.574Z,12.60
2017-11-14T08:03:16.808Z,12.70
2017-11-14T08:05:45.037Z,12.70
2017-11-14T08:08:13.263Z,12.70
2017-11-14T08:10:40.718Z,12.70
2017-11-14T08:13:08.171Z,12.80
2017-11-14T08:15:35.654Z,12.80
2017-11-14T08:18:03.111Z,12.70
2017-11-14T08:20:30.579Z,12.80
2017-11-14T08:22:58.033Z,12.80
2017-11-14T08:25:25.595Z,12.80
2017-11-14T08:27:53.047Z,12.90
2017-11-14T08:30:20.511Z,12.90
2017-11-14T08:32:47.971Z,13.00
2017-11-14T08:35:16.195Z,13.10
2017-11-14T08:37:43.671Z,13.00
2017-11-14T08:40:11.156Z,13.10
2017-11-14T08:42:39.384Z,13.20
2017-11-14T08:45:06.839Z,13.20
2017-11-14T08:47:34.332Z,13.20
2017-11-14T08:50:01.814Z,13.20
2017-11-14T08:52:30.043Z,13.20
2017-11-14T08:54:57.524Z,13.20
2017-11-14T08:57:24.995Z,13.20
2017-11-14T08:59:52.464Z,13.20
2017-11-14T09:02:20.756Z,13.20
2017-11-14T09:04:48.979Z,13.20
2017-11-14T09:07:17.200Z,13.20
2017-11-14T09:09:45.424Z,13.20
2017-11-14T09:12:12.879Z,13.20
2017-11-14T09:14:40.340Z,13.20
2017-11-14T09:17:07.813Z,13.30
2017-11-14T09:19:35.277Z,13.20
2017-11-14T09:22:02.734Z,13.20
2017-11-14T09:24:30.958Z,13.30
2017-11-14T09:26:58.421Z,13.20
2017-11-14T09:29:25.876Z,13.30
2017-11-14T09:31:53.338Z,13.30
2017-11-14T09:34:20.801Z,13.30
2017-11-14T09:36:48.264Z,13.40
2017-11-14T09:39:15.732Z,13.50
2017-11-14T09:41:43.179Z,13.50
2017-11-14T09:44:10.657Z,13.50
2017-11-14T09:46:38.120Z,13.60
2017-11-14T09:49:05.586Z,13.60
2017-11-14T09:51:33.039Z,13.60
2017-11-14T09:54:00.503Z,13.50
2017-11-14T09:56:27.987Z,13.50
2017-11-14T09:58:55.441Z,13.60
2017-11-14T10:01:23.679Z,13.60
2017-11-14T10:03:51.909Z,13.60
2017-11-14T10:06:19.364Z,13.60
2017-11-14T10:08:46.838Z,13.60
2017-11-14T10:11:14.296Z,13.60
2017-11-14T10:13:41.755Z,13.60
2017-11-14T10:16:09.242Z,13.70
2017-11-14T10:18:36.704Z,13.70
2017-11-14T10:21:04.162Z,13.70
2017-11-14T10:23:31.624Z,13.80
2017-11-14T10:25:59.087Z,13.80
2017-11-14T10:28:26.536Z,13.90
2017-11-14T10:30:54.787Z,14.00
2017-11-14T10:33:22.244Z,14.00
2017-11-14T10:35:49.700Z,14.10
2017-11-14T10:38:17.152Z,14.00
2017-11-14T10:40:45.382Z,13.90
2017-11-14T10:43:13.621Z,14.00
2017-11-14T10:45:41.107Z,13.90
2017-11-14T10:48:09.341Z,13.90
2017-11-14T10:50:36.823Z,13.90
2017-11-14T10:53:04.275Z,14.00
2017-11-14T10:55:31.744Z,14.00
2017-11-14T10:57:59.971Z,14.10
2017-11-14T11:00:33.152Z,14.00
2017-11-14T11:03:00.618Z,14.00
2017-11-14T11:05:28.854Z,14.00
2017-11-14T11:07:56.315Z,14.00
2017-11-14T11:10:24.539Z,14.00
2017-11-14T11:12:52.004Z,14.00
2017-11-14T11:15:19.479Z,14.10
2017-11-14T11:17:46.952Z,14.10
2017-11-14T11:20:14.399Z,14.10
2017-11-14T11:22:41.863Z,14.10
2017-11-14T11:25:10.094Z,14.10
2017-11-14T11:27:37.549Z,14.10
2017-11-14T11:30:05.028Z,14.10
2017-11-14T11:32:32.510Z,14.10
2017-11-14T11:34:59.968Z,14.20
2017-11-14T11:37:27.427Z,14.20
2017-11-14T11:39:54.892Z,14.20
2017-11-14T11:42:22.366Z,14.30
2017-11-14T11:44:50.568Z,14.30
2017-11-14T11:47:18.032Z,14.30
2017-11-14T11:49:46.260Z,14.30
2017-11-14T11:52:14.479Z,14.20
2017-11-14T11:54:41.927Z,14.20
2017-11-14T11:57:09.374Z,14.20
2017-11-14T11:59:36.831Z,14.10
2017-11-14T12:02:04.287Z,14.10
2017-11-14T12:04:32.531Z,14.10
2017-11-14T12:06:59.995Z,14.00
2017-11-14T12:09:27.488Z,14.00
2017-11-14T12:11:54.950Z,14.10
2017-11-14T12:14:22.419Z,14.10
2017-11-14T12:16:49.869Z,14.00
2017-11-14T12:19:17.325Z,14.10
2017-11-14T12:21:45.563Z,14.00
2017-11-14T12:24:13.789Z,14.10
2017-11-14T12:26:42.012Z,14.00
2017-11-14T12:29:10.239Z,14.20
2017-11-14T12:31:37.747Z,14.10
2017-11-14T12:34:05.216Z,14.10
2017-11-14T12:36:32.688Z,14.20
2017-11-14T12:39:00.157Z,14.20
2017-11-14T12:41:27.611Z,14.20
2017-11-14T12:43:55.105Z,14.20
2017-11-14T12:46:22.569Z,14.20
2017-11-14T12:48:50.048Z,14.20
2017-11-14T12:51:18.268Z,14.20
2017-11-14T12:53:45.812Z,14.10
2017-11-14T12:56:13.290Z,14.20
2017-11-14T12:58:40.791Z,14.20
2017-11-14T13:01:09.049Z,14.20
2017-11-14T13:03:36.533Z,14.20
2017-11-14T13:06:04.777Z,14.30
2017-11-14T13:08:32.239Z,14.30
2017-11-14T13:10:59.709Z,14.30
2017-11-14T13:13:27.175Z,14.20
2017-11-14T13:15:55.429Z,14.20
2017-11-14T13:18:22.881Z,14.20
2017-11-14T13:20:50.354Z,14.30
2017-11-14T13:23:18.572Z,14.20
2017-11-14T13:25:46.027Z,14.20
2017-11-14T13:28:13.468Z,14.30
2017-11-14T13:30:41.731Z,14.20
2017-11-14T13:33:09.191Z,14.20
2017-11-14T13:35:37.456Z,14.20
2017-11-14T13:38:04.911Z,14.20
2017-11-14T13:40:33.344Z,14.30
2017-11-14T13:43:00.812Z,14.30
2017-11-14T13:45:28.290Z,14.30
2017-11-14T13:47:55.735Z,14.30
2017-11-14T13:50:23.216Z,14.30
2017-11-14T13:52:50.691Z,14.20
2017-11-14T13:55:18.944Z,14.20
2017-11-14T13:57:46.411Z,14.20
2017-11-14T14:00:14.668Z,14.20
2017-11-14T14:02:42.145Z,14.20
2017-11-14T14:05:09.611Z,14.20
2017-11-14T14:07:37.072Z,14.20
2017-11-14T14:10:05.319Z,14.20
2017-11-14T14:12:32.779Z,14.20
2017-11-14T14:15:00.257Z,14.20
2017-11-14T14:17:27.783Z,14.30
2017-11-14T14:19:55.260Z,14.30
2017-11-14T14:22:22.775Z,14.20
2017-11-14T14:24:51.003Z,14.30
2017-11-14T14:27:19.241Z,14.20
2017-11-14T14:29:47.510Z,14.20
2017-11-14T14:32:14.994Z,14.20
2017-11-14T14:34:42.481Z,14.20
2017-11-14T14:37:10.754Z,14.30
2017-11-14T14:39:39.027Z,14.20
2017-11-14T14:42:06.492Z,14.20
2017-11-14T14:44:34.745Z,14.20
2017-11-14T14:47:02.251Z,14.20
2017-11-14T14:49:29.723Z,14.20
2017-11-14T14:51:57.187Z,14.20
2017-11-14T14:54:24.668Z,14.20
2017-11-14T14:56:52.168Z,14.20
2017-11-14T14:59:20.423Z,14.20
2017-11-14T15:01:47.898Z,14.10
2017-11-14T15:04:16.135Z,14.10
2017-11-14T15:06:43.620Z,14.10
2017-11-14T15:09:11.110Z,14.10
2017-11-14T15:11:38.592Z,14.10
2017-11-14T15:14:06.191Z,14.10
2017-11-14T15:16:33.679Z,14.10
2017-11-14T15:19:01.165Z,14.10
2017-11-14T15:21:28.639Z,14.10
2017-11-14T15:23:56.103Z,14.10
2017-11-14T15:26:23.659Z,14.10
2017-11-14T15:28:51.140Z,14.10
2017-11-14T15:31:18.593Z,14.10
2017-11-14T15:33:46.052Z,14.10
2017-11-14T15:36:13.506Z,14.10
2017-11-14T15:38:40.959Z,14.00
2017-11-14T15:41:09.936Z,14.00
2017-11-14T15:43:37.394Z,14.00
2017-11-14T15:46:04.856Z,14.10
2017-11-14T15:48:33.130Z,14.00
2017-11-14T15:51:00.572Z,14.00
2017-11-14T15:53:28.048Z,14.10
2017-11-14T15:55:55.499Z,14.10
2017-11-14T15:58:22.951Z,14.10
2017-11-14T16:00:50.410Z,14.10
2017-11-14T16:03:17.870Z,14.10
2017-11-14T16:05:45.340Z,14.10
2017-11-14T16:08:12.800Z,14.10
2017-11-14T16:10:40.273Z,14.10
2017-11-14T16:13:08.521Z,14.00
2017-11-14T16:15:35.982Z,14.00
2017-11-14T16:18:03.515Z,14.10
2017-11-14T16:20:31.172Z,14.10
2017-11-14T16:22:58.659Z,14.10
2017-11-14T16:25:26.189Z,14.10
2017-11-14T16:27:53.682Z,14.00
2017-11-14T16:30:21.919Z,14.10
2017-11-14T16:32:49.406Z,14.00
2017-11-14T16:35:16.902Z,14.10
2017-11-14T16:37:45.143Z,14.10
2017-11-14T16:40:12.602Z,14.00
2017-11-14T16:42:40.841Z,14.00
2017-11-14T16:45:08.311Z,14.00
2017-11-14T16:47:35.795Z,14.10
2017-11-14T16:50:04.036Z,14.10
2017-11-14T16:52:31.536Z,14.10
2017-11-14T16:54:58.995Z,14.10
2017-11-14T16:57:26.466Z,14.10
2017-11-14T16:59:53.957Z,14.10
2017-11-14T17:02:22.168Z,14.00
2017-11-14T17:04:49.646Z,14.00
2017-11-14T17:07:17.130Z,14.00
2017-11-14T17:09:44.592Z,14.10
2017-11-14T17:12:12.812Z,14.10
2017-11-14T17:17:34.361Z,14.00
2017-11-14T17:20:01.850Z,14.00
2017-11-14T17:22:31.298Z,14.00
2017-11-14T17:25:00.261Z,14.00
2017-11-14T17:27:28.119Z,14.00
2017-11-14T17:29:56.651Z,14.10
2017-11-14T17:32:24.173Z,14.10
2017-11-14T17:34:51.656Z,14.10
2017-11-14T17:37:19.128Z,14.10
2017-11-14T17:39:47.353Z,14.10
2017-11-14T17:42:15.575Z,14.10
2017-11-14T17:44:43.802Z,14.10
2017-11-14T17:47:11.284Z,14.10
2017-11-14T17:49:38.745Z,14.10
2017-11-14T17:52:06.206Z,14.10
2017-11-14T17:54:34.420Z,14.10
2017-11-14T17:57:02.642Z,14.10
2017-11-14T17:59:30.971Z,14.10
2017-11-14T18:01:58.460Z,14.10
2017-11-14T18:04:26.703Z,14.10
2017-11-14T18:06:54.213Z,14.10
2017-11-14T18:09:22.431Z,14.10
2017-11-14T18:11:49.892Z,14.10
2017-11-14T18:14:17.354Z,14.10
2017-11-14T18:16:44.828Z,14.10
2017-11-14T18:19:12.299Z,14.10
2017-11-14T18:21:40.506Z,14.20
2017-11-14T18:24:07.984Z,14.10
2017-11-14T18:26:35.417Z,14.20
2017-11-14T18:29:02.926Z,14.10
2017-11-14T18:31:30.403Z,14.10
2017-11-14T18:33:58.637Z,14.10
2017-11-14T18:36:26.091Z,14.10
2017-11-14T18:38:53.570Z,14.20
2017-11-14T18:41:21.032Z,14.10
2017-11-14T18:43:48.487Z,14.10
2017-11-14T18:46:15.943Z,14.10
2017-11-14T18:48:43.398Z,14.10
2017-11-14T18:51:10.851Z,14.10
2017-11-14T18:53:38.312Z,14.20
2017-11-14T18:56:05.769Z,14.20
2017-11-14T18:58:33.251Z,14.20
2017-11-14T19:01:01.487Z,14.10
2017-11-14T19:03:28.929Z,14.10
2017-11-14T19:05:57.155Z,14.20
2017-11-14T19:08:24.612Z,14.20
2017-11-14T19:10:52.839Z,14.20
2017-11-14T19:13:20.314Z,14.20
2017-11-14T19:15:49.274Z,14.20
2017-11-14T19:18:16.738Z,14.20
2017-11-14T19:20:44.201Z,14.20
2017-11-14T19:23:11.650Z,14.20
2017-11-14T19:25:39.119Z,14.20
2017-11-14T19:28:06.582Z,14.20
2017-11-14T19:30:34.805Z,14.20
2017-11-14T19:33:03.023Z,14.20
2017-11-14T19:35:30.490Z,14.20
2017-11-14T19:37:57.951Z,14.20
2017-11-14T19:40:25.417Z,14.20
2017-11-14T19:42:53.649Z,14.20
2017-11-14T19:45:21.091Z,14.20
2017-11-14T19:47:49.317Z,14.30
2017-11-14T19:50:16.778Z,14.30
2017-11-14T19:52:44.231Z,14.30
2017-11-14T19:55:12.440Z,14.30
2017-11-14T19:57:40.676Z,14.30
2017-11-14T20:00:08.128Z,14.30
2017-11-14T20:02:35.583Z,14.30
2017-11-14T20:05:03.072Z,14.30
2017-11-14T20:07:30.527Z,14.30
2017-11-14T20:09:57.971Z,14.30
2017-11-14T20:12:25.436Z,14.30
2017-11-14T20:14:53.651Z,14.40
2017-11-14T20:17:21.094Z,14.40
2017-11-14T20:19:49.315Z,14.40
2017-11-14T20:22:16.783Z,14.30
2017-11-14T20:24:44.242Z,14.30
2017-11-14T20:27:11.694Z,14.40
2017-11-14T20:29:39.162Z,14.30
2017-11-14T20:32:07.407Z,14.40
2017-11-14T20:34:34.870Z,14.40
2017-11-14T20:37:02.338Z,14.40
2017-11-14T20:39:29.808Z,14.40
2017-11-14T20:41:57.250Z,14.40
2017-11-14T20:44:24.803Z,14.40
2017-11-14T20:46:52.284Z,14.40
2017-11-14T20:49:19.735Z,14.40
2017-11-14T20:51:47.191Z,14.40
2017-11-14T20:54:14.670Z,14.40
2017-11-14T20:56:42.125Z,14.40
2017-11-14T20:59:09.579Z,14.40
2017-11-14T21:01:37.812Z,14.50
2017-11-14T21:04:05.288Z,14.40
2017-11-14T21:06:32.758Z,14.50
2017-11-14T21:09:00.211Z,14.50
2017-11-14T21:11:27.680Z,14.40
2017-11-14T21:13:55.126Z,14.40
2017-11-14T21:16:22.587Z,14.50
2017-11-14T21:18:50.041Z,14.50
2017-11-14T21:21:17.590Z,14.50
2017-11-14T21:23:45.051Z,14.40
2017-11-14T21:26:12.511Z,14.50
2017-11-14T21:28:39.970Z,14.50
2017-11-14T21:31:07.448Z,14.50
2017-11-14T21:33:34.897Z,14.50
2017-11-14T21:36:03.119Z,14.50
2017-11-14T21:38:32.139Z,14.50
2017-11-14T21:40:59.596Z,14.50
2017-11-14T21:43:27.050Z,14.50
2017-11-14T21:45:54.533Z,14.50
2017-11-14T21:48:21.987Z,14.50
2017-11-14T21:50:49.460Z,14.50
2017-11-14T21:53:16.904Z,14.50
2017-11-14T21:55:44.359Z,14.50
2017-11-14T21:58:11.803Z,14.50
2017-11-14T22:00:39.283Z,14.50
2017-11-14T22:03:06.743Z,14.50
2017-11-14T22:05:34.187Z,14.60
2017-11-14T22:08:01.640Z,14.60
2017-11-14T22:10:29.874Z,14.60
2017-11-14T22:12:58.091Z,14.60
2017-11-14T22:15:26.310Z,14.60
2017-11-14T22:17:53.768Z,14.50
2017-11-14T22:20:21.232Z,14.50
2017-11-14T22:22:49.452Z,14.60
2017-11-14T22:25:17.656Z,14.60
2017-11-14T22:27:45.136Z,14.60
2017-11-14T22:30:12.592Z,14.60
2017-11-14T22:32:40.045Z,14.60
2017-11-14T22:35:07.502Z,14.60
2017-11-14T22:37:34.964Z,14.60
2017-11-14T22:40:02.437Z,14.60
2017-11-14T22:42:30.670Z,14.60
2017-11-14T22:45:01.157Z,14.60
2017-11-14T22:47:28.621Z,14.60
2017-11-14T22:49:56.091Z,14.60
2017-11-14T22:52:23.546Z,14.60
2017-11-14T22:54:50.997Z,14.60
2017-11-14T22:57:18.457Z,14.60
2017-11-14T22:59:45.913Z,14.60
2017-11-14T23:02:13.373Z,14.60
2017-11-14T23:04:41.595Z,14.60
2017-11-14T23:07:09.066Z,14.60
2017-11-14T23:09:36.538Z,14.60
2017-11-14T23:12:04.755Z,14.60
2017-11-14T23:14:32.206Z,14.70
2017-11-14T23:16:59.655Z,14.60
2017-11-14T23:19:27.110Z,14.60
2017-11-14T23:21:54.564Z,14.60
2017-11-14T23:24:22.022Z,14.60
2017-11-14T23:26:49.478Z,14.60
2017-11-14T23:29:17.700Z,14.70
2017-11-14T23:31:45.179Z,14.60
2017-11-14T23:34:13.398Z,14.70
2017-11-14T23:36:40.849Z,14.70
2017-11-14T23:39:08.303Z,14.70
2017-11-14T23:41:35.786Z,14.70
2017-11-14T23:44:03.267Z,14.70
2017-11-14T23:46:30.866Z,14.70
2017-11-14T23:48:58.318Z,14.70
2017-11-14T23:51:25.780Z,14.70
2017-11-14T23:53:54.011Z,14.70
2017-11-14T23:56:21.472Z,14.70
2017-11-14T23:58:48.927Z,14.70
